createdAt,value
2019-04-30T00:01:37.105Z,98036.53
2019-04-30T00:03:50.444Z,98033.09
2019-04-30T00:05:59.594Z,98031.33
2019-04-30T00:08:07.524Z,98034.83
2019-04-30T00:10:16.125Z,98030.22
2019-04-30T00:12:25.722Z,98035.22
2019-04-30T00:14:38.562Z,98029.19
2019-04-30T00:16:45.105Z,98025.66
2019-04-30T00:18:59.814Z,98025.66
2019-04-30T00:21:05.279Z,98024.27
2019-04-30T00:23:13.030Z,98030.12
2019-04-30T00:25:27.021Z,98023.98
2019-04-30T00:27:31.171Z,98025.34
2019-04-30T00:29:39.701Z,98027.14
2019-04-30T00:31:47.759Z,98026.06
2019-04-30T00:33:57.912Z,98024.30
2019-04-30T00:36:05.623Z,98027.24
2019-04-30T00:38:15.105Z,98021.73
2019-04-30T00:40:26.700Z,98028.34
2019-04-30T00:42:33.648Z,98024.95
2019-04-30T00:44:41.671Z,98021.45
2019-04-30T00:46:49.543Z,98023.14
2019-04-30T00:49:08.772Z,98026.36
2019-04-30T00:51:14.078Z,98023.81
2019-04-30T00:53:17.603Z,98019.80
2019-04-30T00:55:25.487Z,98019.94
2019-04-30T00:57:37.374Z,98021.94
2019-04-30T00:59:46.520Z,98019.83
2019-04-30T01:02:12.300Z,98022.98
2019-04-30T01:04:36.921Z,98018.89
2019-04-30T01:06:46.183Z,98020.87
2019-04-30T01:08:58.296Z,98026.13
2019-04-30T01:11:09.416Z,98021.63
2019-04-30T01:13:14.647Z,98029.46
2019-04-30T01:15:23.598Z,98025.23
2019-04-30T01:17:31.846Z,98030.16
2019-04-30T01:19:40.400Z,98022.67
2019-04-30T01:21:50.795Z,98024.47
2019-04-30T01:23:59.095Z,98026.59
2019-04-30T01:26:08.775Z,98022.98
2019-04-30T01:28:23.122Z,98020.88
2019-04-30T01:30:28.494Z,98019.00
2019-04-30T01:32:37.065Z,98019.14
2019-04-30T01:34:49.972Z,98020.00
2019-04-30T01:36:54.468Z,98018.72
2019-04-30T01:39:02.425Z,98021.63
2019-04-30T01:41:11.036Z,98013.77
2019-04-30T01:43:30.501Z,98023.67
2019-04-30T01:45:31.691Z,98020.90
2019-04-30T01:47:39.795Z,98022.28
2019-04-30T01:49:49.578Z,98018.23
2019-04-30T01:52:00.489Z,98022.15
2019-04-30T01:54:07.102Z,98010.09
2019-04-30T01:56:19.715Z,98013.08
2019-04-30T01:58:30.171Z,98016.19
2019-04-30T02:00:50.461Z,98011.23
2019-04-30T02:02:59.249Z,98019.48
2019-04-30T02:05:08.909Z,98006.66
2019-04-30T02:07:19.086Z,98013.52
2019-04-30T02:09:28.657Z,98017.75
2019-04-30T02:11:36.572Z,98019.83
2019-04-30T02:13:44.461Z,98022.73
2019-04-30T02:15:52.344Z,98023.29
2019-04-30T02:18:00.288Z,98022.66
2019-04-30T02:20:09.039Z,98018.60
2019-04-30T02:22:18.844Z,98022.09
2019-04-30T02:24:28.751Z,98015.83
2019-04-30T02:26:38.502Z,98020.98
2019-04-30T02:28:46.640Z,98015.88
2019-04-30T02:30:54.729Z,98016.37
2019-04-30T02:33:03.460Z,98016.34
2019-04-30T02:35:19.290Z,98013.05
2019-04-30T02:37:29.969Z,98017.39
2019-04-30T02:39:40.162Z,98010.77
2019-04-30T02:41:50.631Z,98013.48
2019-04-30T02:43:59.877Z,98014.33
2019-04-30T02:46:09.629Z,98013.80
2019-04-30T02:48:20.637Z,98020.12
2019-04-30T02:50:29.766Z,98018.45
2019-04-30T02:52:40.187Z,98013.90
2019-04-30T02:54:51.451Z,98017.52
2019-04-30T02:57:00.895Z,98016.17
2019-04-30T02:59:10.379Z,98011.89
2019-04-30T03:01:20.240Z,98018.57
2019-04-30T03:03:29.956Z,98019.54
2019-04-30T03:05:39.224Z,98023.52
2019-04-30T03:07:52.965Z,98020.52
2019-04-30T03:09:59.585Z,98016.58
2019-04-30T03:12:08.679Z,98019.05
2019-04-30T03:14:16.940Z,98023.53
2019-04-30T03:16:32.193Z,98024.27
2019-04-30T03:18:49.947Z,98021.41
2019-04-30T03:21:11.753Z,98027.37
2019-04-30T03:23:19.714Z,98023.43
2019-04-30T03:25:29.812Z,98033.87
2019-04-30T03:27:42.219Z,98030.87
2019-04-30T03:29:46.651Z,98030.48
2019-04-30T03:31:55.226Z,98033.39
2019-04-30T03:34:04.446Z,98042.19
2019-04-30T03:36:13.112Z,98042.83
2019-04-30T03:38:21.142Z,98040.11
2019-04-30T03:40:30.271Z,98041.61
2019-04-30T03:42:39.719Z,98041.27
2019-04-30T03:44:49.634Z,98043.36
2019-04-30T03:46:59.268Z,98044.72
2019-04-30T03:49:06.808Z,98039.98
2019-04-30T03:51:15.751Z,98043.27
2019-04-30T03:53:23.581Z,98046.56
2019-04-30T03:55:31.375Z,98052.58
2019-04-30T03:57:39.950Z,98047.63
2019-04-30T03:59:49.970Z,98048.58
2019-04-30T04:02:05.096Z,98053.14
2019-04-30T04:04:26.597Z,98050.20
2019-04-30T04:06:39.577Z,98056.77
2019-04-30T04:08:50.441Z,98054.56
2019-04-30T04:11:00.625Z,98059.33
2019-04-30T04:13:10.362Z,98051.56
2019-04-30T04:15:19.900Z,98055.75
2019-04-30T04:17:27.654Z,98062.31
2019-04-30T04:19:35.606Z,98055.83
2019-04-30T04:21:44.535Z,98058.66
2019-04-30T04:23:52.387Z,98058.33
2019-04-30T04:26:00.240Z,98059.52
2019-04-30T04:28:10.112Z,98057.05
2019-04-30T04:30:20.376Z,98059.31
2019-04-30T04:32:30.895Z,98055.20
2019-04-30T04:34:39.918Z,98051.76
2019-04-30T04:36:50.528Z,98048.56
2019-04-30T04:38:59.932Z,98059.89
2019-04-30T04:41:10.082Z,98063.06
2019-04-30T04:43:17.177Z,98061.16
2019-04-30T04:45:25.282Z,98059.84
2019-04-30T04:47:33.070Z,98062.14
2019-04-30T04:49:41.068Z,98060.60
2019-04-30T04:51:49.377Z,98059.55
2019-04-30T04:54:00.094Z,98061.94
2019-04-30T04:56:07.222Z,98054.81
2019-04-30T04:58:15.130Z,98056.99
2019-04-30T05:00:23.150Z,98053.27
2019-04-30T05:02:36.774Z,98060.57
2019-04-30T05:04:44.718Z,98057.56
2019-04-30T05:06:52.722Z,98049.66
2019-04-30T05:09:01.690Z,98056.53
2019-04-30T05:11:09.771Z,98060.55
2019-04-30T05:13:19.231Z,98059.92
2019-04-30T05:15:29.354Z,98059.19
2019-04-30T05:17:37.070Z,98055.76
2019-04-30T05:19:44.961Z,98056.09
2019-04-30T05:21:52.853Z,98054.12
2019-04-30T05:24:01.921Z,98058.06
2019-04-30T05:26:11.146Z,98060.51
2019-04-30T05:28:20.003Z,98066.98
2019-04-30T05:30:29.503Z,98066.01
2019-04-30T05:32:39.064Z,98057.48
2019-04-30T05:34:47.449Z,98061.50
2019-04-30T05:36:55.453Z,98065.06
2019-04-30T05:39:03.704Z,98067.50
2019-04-30T05:41:11.839Z,98069.25
2019-04-30T05:43:20.075Z,98075.70
2019-04-30T05:45:29.212Z,98074.16
2019-04-30T05:47:38.864Z,98072.61
2019-04-30T05:49:48.745Z,98075.20
2019-04-30T05:51:56.724Z,98078.72
2019-04-30T05:54:04.511Z,98078.47
2019-04-30T05:56:12.433Z,98076.20
2019-04-30T05:58:20.215Z,98081.95
2019-04-30T06:00:30.270Z,98084.12
2019-04-30T06:02:39.717Z,98087.22
2019-04-30T06:04:48.912Z,98082.67
2019-04-30T06:06:58.696Z,98088.44
2019-04-30T06:09:18.751Z,98083.34
2019-04-30T06:11:41.842Z,98085.06
2019-04-30T06:14:08.678Z,98087.36
2019-04-30T06:16:18.887Z,98086.91
2019-04-30T06:18:28.613Z,98087.37
2019-04-30T06:20:36.454Z,98089.84
2019-04-30T06:22:44.812Z,98090.05
2019-04-30T06:24:52.598Z,98090.05
2019-04-30T06:27:00.887Z,98086.77
2019-04-30T06:29:09.246Z,98085.59
2019-04-30T06:31:22.284Z,98089.59
2019-04-30T06:33:29.120Z,98093.77
2019-04-30T06:35:39.056Z,98095.39
2019-04-30T06:37:49.708Z,98091.36
2019-04-30T06:39:59.153Z,98109.20
2019-04-30T06:42:12.462Z,98086.44
2019-04-30T06:44:19.464Z,98098.69
2019-04-30T06:46:28.660Z,98090.09
2019-04-30T06:48:36.903Z,98085.70
2019-04-30T06:50:44.854Z,98094.95
2019-04-30T06:52:58.656Z,98091.55
2019-04-30T06:55:05.519Z,98084.80
2019-04-30T06:57:13.307Z,98090.82
2019-04-30T06:59:21.294Z,98094.31
2019-04-30T07:01:29.418Z,98087.46
2019-04-30T07:03:38.850Z,98085.55
2019-04-30T07:05:48.618Z,98091.20
2019-04-30T07:08:13.724Z,98096.48
2019-04-30T07:10:23.558Z,98099.43
2019-04-30T07:12:42.506Z,98102.44
2019-04-30T07:14:50.725Z,98104.36
2019-04-30T07:16:59.446Z,98098.80
2019-04-30T07:19:09.318Z,98106.38
2019-04-30T07:21:19.844Z,98104.36
2019-04-30T07:23:28.818Z,98104.07
2019-04-30T07:25:39.090Z,98107.27
2019-04-30T07:27:49.864Z,98101.70
2019-04-30T07:29:56.950Z,98103.97
2019-04-30T07:32:05.815Z,98097.86
2019-04-30T07:34:13.867Z,98103.08
2019-04-30T07:36:21.731Z,98102.06
2019-04-30T07:38:29.614Z,98100.61
2019-04-30T07:40:39.051Z,98098.49
2019-04-30T07:42:49.036Z,98088.14
2019-04-30T07:44:56.944Z,98089.39
2019-04-30T07:47:05.397Z,98091.64
2019-04-30T07:49:13.660Z,98085.94
2019-04-30T07:51:22.843Z,98081.89
2019-04-30T07:53:31.498Z,98092.25
2019-04-30T07:55:39.506Z,98092.27
2019-04-30T07:57:50.620Z,98084.91
2019-04-30T07:59:57.220Z,98090.74
2019-04-30T08:02:13.703Z,98090.92
2019-04-30T08:04:32.612Z,98084.51
2019-04-30T08:06:41.111Z,98085.98
2019-04-30T08:08:50.529Z,98087.61
2019-04-30T08:10:59.539Z,98093.54
2019-04-30T08:13:13.774Z,98086.98
2019-04-30T08:15:19.804Z,98089.91
2019-04-30T08:17:28.908Z,98091.39
2019-04-30T08:19:38.458Z,98089.86
2019-04-30T08:21:48.594Z,98088.48
2019-04-30T08:23:57.004Z,98095.69
2019-04-30T08:26:05.473Z,98090.35
2019-04-30T08:28:13.660Z,98089.70
2019-04-30T08:30:26.714Z,98088.45
2019-04-30T08:32:31.647Z,98094.83
2019-04-30T08:34:39.562Z,98093.81
2019-04-30T08:36:48.884Z,98095.34
2019-04-30T08:38:57.125Z,98090.38
2019-04-30T08:41:05.848Z,98093.80
2019-04-30T08:43:13.734Z,98095.11
2019-04-30T08:45:22.962Z,98096.83
2019-04-30T08:47:31.988Z,98089.53
2019-04-30T08:49:41.553Z,98093.79
2019-04-30T08:51:50.051Z,98099.44
2019-04-30T08:53:58.796Z,98098.53
2019-04-30T08:56:06.969Z,98105.86
2019-04-30T08:58:15.332Z,98098.20
2019-04-30T09:00:23.808Z,98105.30
2019-04-30T09:02:31.726Z,98096.92
2019-04-30T09:04:39.647Z,98107.81
2019-04-30T09:06:49.027Z,98104.81
2019-04-30T09:08:59.277Z,98103.45
2019-04-30T09:11:20.149Z,98104.57
2019-04-30T09:13:19.066Z,98103.53
2019-04-30T09:15:29.073Z,98107.14
2019-04-30T09:17:38.579Z,98126.98
2019-04-30T09:19:46.583Z,98113.99
2019-04-30T09:21:54.716Z,98111.91
2019-04-30T09:24:02.744Z,98102.20
2019-04-30T09:26:11.633Z,98117.87
2019-04-30T09:28:19.950Z,98115.88
2019-04-30T09:30:29.943Z,98124.77
2019-04-30T09:32:38.994Z,98122.70
2019-04-30T09:34:48.724Z,98128.20
2019-04-30T09:36:58.703Z,98117.87
2019-04-30T09:39:08.941Z,98112.95
2019-04-30T09:41:19.270Z,98122.56
2019-04-30T09:43:28.636Z,98119.02
2019-04-30T09:45:38.426Z,98117.67
2019-04-30T09:47:47.789Z,98120.13
2019-04-30T09:49:55.609Z,98114.92
2019-04-30T09:52:03.558Z,98121.95
2019-04-30T09:54:12.701Z,98115.34
2019-04-30T09:56:21.356Z,98114.20
2019-04-30T09:58:30.025Z,98118.10
2019-04-30T10:00:39.274Z,98117.05
2019-04-30T10:02:48.887Z,98116.59
2019-04-30T10:04:57.657Z,98124.16
2019-04-30T10:07:06.291Z,98120.73
2019-04-30T10:09:15.492Z,98123.64
2019-04-30T10:11:29.412Z,98116.00
2019-04-30T10:13:37.273Z,98115.53
2019-04-30T10:16:00.158Z,98109.41
2019-04-30T10:18:09.078Z,98111.80
2019-04-30T10:20:19.047Z,98119.25
2019-04-30T10:22:26.962Z,98113.20
2019-04-30T10:24:35.232Z,98109.34
2019-04-30T10:26:43.088Z,98112.74
2019-04-30T10:28:52.692Z,98110.73
2019-04-30T10:31:00.649Z,98109.45
2019-04-30T10:33:09.973Z,98102.20
2019-04-30T10:35:18.322Z,98109.03
2019-04-30T10:37:28.770Z,98106.47
2019-04-30T10:39:38.932Z,98106.98
2019-04-30T10:41:49.205Z,98108.84
2019-04-30T10:43:58.981Z,98098.47
2019-04-30T10:46:06.745Z,98100.44
2019-04-30T10:48:14.653Z,98100.47
2019-04-30T10:50:24.116Z,98103.55
2019-04-30T10:52:31.985Z,98100.44
2019-04-30T10:54:39.791Z,98107.81
2019-04-30T10:56:49.036Z,98107.97
2019-04-30T10:58:58.667Z,98106.67
2019-04-30T11:01:06.887Z,98112.16
2019-04-30T11:03:20.088Z,98109.36
2019-04-30T11:05:24.476Z,98111.25
2019-04-30T11:07:32.303Z,98105.39
2019-04-30T11:09:40.257Z,98103.65
2019-04-30T11:11:49.710Z,98100.76
2019-04-30T11:13:57.814Z,98102.07
2019-04-30T11:16:12.670Z,98106.64
2019-04-30T11:18:15.719Z,98101.16
2019-04-30T11:20:23.956Z,98105.47
2019-04-30T11:22:32.408Z,98110.45
2019-04-30T11:24:57.615Z,98111.31
2019-04-30T11:26:51.736Z,98116.54
2019-04-30T11:29:00.283Z,98113.71
2019-04-30T11:31:23.704Z,98105.45
2019-04-30T11:33:32.032Z,98096.92
2019-04-30T11:35:40.089Z,98102.13
2019-04-30T11:37:47.984Z,98094.52
2019-04-30T11:39:55.965Z,98090.66
2019-04-30T11:42:04.957Z,98086.78
2019-04-30T11:44:12.992Z,98091.09
2019-04-30T11:46:28.778Z,98094.02
2019-04-30T11:48:38.722Z,98087.39
2019-04-30T11:50:47.009Z,98084.88
2019-04-30T11:53:09.626Z,98083.75
2019-04-30T11:55:09.671Z,98083.39
2019-04-30T11:57:18.698Z,98080.77
2019-04-30T11:59:26.770Z,98082.91
2019-04-30T12:01:35.987Z,98086.65
2019-04-30T12:03:44.229Z,98069.44
2019-04-30T12:05:52.106Z,98074.47
2019-04-30T12:08:04.531Z,98074.83
2019-04-30T12:10:20.345Z,98075.77
2019-04-30T12:12:28.922Z,98074.14
2019-04-30T12:14:36.826Z,98073.78
2019-04-30T12:16:44.617Z,98070.97
2019-04-30T12:18:52.737Z,98069.92
2019-04-30T12:21:00.705Z,98074.14
2019-04-30T12:23:11.743Z,98071.45
2019-04-30T12:25:19.209Z,98070.16
2019-04-30T12:27:28.774Z,98067.83
2019-04-30T12:29:36.839Z,98072.04
2019-04-30T12:31:44.760Z,98062.89
2019-04-30T12:33:52.894Z,98054.57
2019-04-30T12:36:00.746Z,98051.07
2019-04-30T12:38:08.876Z,98048.83
2019-04-30T12:40:26.609Z,98047.33
2019-04-30T12:42:28.698Z,98044.61
2019-04-30T12:44:39.898Z,98031.94
2019-04-30T12:46:48.523Z,98037.59
2019-04-30T12:49:05.108Z,98037.71
2019-04-30T12:51:31.134Z,98045.67
2019-04-30T12:53:46.600Z,98043.91
2019-04-30T12:56:00.368Z,98034.77
2019-04-30T12:58:09.773Z,98043.20
2019-04-30T13:00:19.523Z,98033.72
2019-04-30T13:02:29.031Z,98033.81
2019-04-30T13:04:39.239Z,98040.16
2019-04-30T13:06:49.108Z,98036.66
2019-04-30T13:08:59.937Z,98024.36
2019-04-30T13:11:07.671Z,98027.89
2019-04-30T13:13:17.953Z,98032.11
2019-04-30T13:15:26.030Z,98036.09
2019-04-30T13:17:33.946Z,98038.42
2019-04-30T13:19:41.886Z,98038.42
2019-04-30T13:21:49.666Z,98030.94
2019-04-30T13:23:57.652Z,98028.12
2019-04-30T13:26:05.600Z,98026.27
2019-04-30T13:28:15.270Z,98033.98
2019-04-30T13:30:29.650Z,98025.20
2019-04-30T13:32:41.554Z,98029.06
2019-04-30T13:34:51.489Z,98025.55
2019-04-30T13:36:59.459Z,98029.75
2019-04-30T13:39:12.120Z,98023.80
2019-04-30T13:41:21.987Z,98030.35
2019-04-30T13:43:48.759Z,98017.67
2019-04-30T13:45:58.191Z,98033.28
2019-04-30T13:48:08.952Z,98026.13
2019-04-30T13:50:19.683Z,98011.02
2019-04-30T13:52:30.939Z,98018.39
2019-04-30T13:54:39.584Z,98017.72
2019-04-30T13:56:49.287Z,98009.48
2019-04-30T13:58:57.235Z,98008.03
2019-04-30T14:01:06.158Z,98001.05
2019-04-30T14:03:19.192Z,98009.73
2019-04-30T14:05:28.294Z,98005.10
2019-04-30T14:07:46.533Z,98016.48
2019-04-30T14:09:54.407Z,98017.74
2019-04-30T14:12:02.308Z,98019.95
2019-04-30T14:14:10.196Z,98020.85
2019-04-30T14:16:18.417Z,98021.58
2019-04-30T14:18:30.958Z,98019.63
2019-04-30T14:20:36.311Z,98020.44
2019-04-30T14:22:44.201Z,98017.98
2019-04-30T14:24:52.000Z,98013.55
2019-04-30T14:26:59.788Z,98021.91
2019-04-30T14:29:09.032Z,98015.84
2019-04-30T14:31:18.673Z,98019.00
2019-04-30T14:33:29.348Z,98022.06
2019-04-30T14:35:38.624Z,98020.77
2019-04-30T14:37:49.573Z,98014.97
2019-04-30T14:39:57.606Z,98018.01
2019-04-30T14:42:07.017Z,98019.42
2019-04-30T14:44:18.573Z,98017.63
2019-04-30T14:46:29.910Z,98021.78
2019-04-30T14:48:43.340Z,98016.75
2019-04-30T14:50:51.639Z,98022.61
2019-04-30T14:53:05.370Z,98031.53
2019-04-30T14:55:31.236Z,98019.09
2019-04-30T14:57:43.763Z,98023.66
2019-04-30T15:00:10.436Z,98028.11
2019-04-30T15:02:22.971Z,98020.13
2019-04-30T15:04:30.835Z,98013.10
2019-04-30T15:06:38.871Z,98012.06
2019-04-30T15:08:46.702Z,98025.16
2019-04-30T15:10:54.601Z,98017.09
2019-04-30T15:13:02.748Z,98015.09
2019-04-30T15:15:10.983Z,98008.98
2019-04-30T15:17:18.770Z,98011.97
2019-04-30T15:19:26.624Z,98010.06
2019-04-30T15:21:34.640Z,98013.59
2019-04-30T15:24:01.677Z,98006.16
2019-04-30T15:26:21.692Z,98016.58
2019-04-30T15:28:19.321Z,98008.55
2019-04-30T15:30:28.886Z,98006.58
2019-04-30T15:32:39.555Z,98008.42
2019-04-30T15:34:49.050Z,98008.73
2019-04-30T15:36:59.021Z,98007.17
2019-04-30T15:39:09.943Z,98007.41
2019-04-30T15:41:19.090Z,98003.27
2019-04-30T15:43:27.255Z,98005.55
2019-04-30T15:45:36.107Z,97995.13
2019-04-30T15:47:43.942Z,98001.90
2019-04-30T15:49:52.202Z,97997.69
2019-04-30T15:52:00.101Z,97994.86
2019-04-30T15:54:09.163Z,97986.79
2019-04-30T15:56:19.177Z,97996.63
2019-04-30T15:58:28.961Z,97994.59
2019-04-30T16:00:39.372Z,97992.13
2019-04-30T16:02:56.890Z,97990.52
2019-04-30T16:04:59.907Z,97989.70
2019-04-30T16:07:08.542Z,97993.53
2019-04-30T16:09:35.583Z,97991.19
2019-04-30T16:11:54.187Z,97989.17
2019-04-30T16:14:19.647Z,97992.27
2019-04-30T16:16:29.186Z,97989.80
2019-04-30T16:18:44.622Z,97995.25
2019-04-30T16:20:54.136Z,97988.20
2019-04-30T16:23:03.082Z,97989.22
2019-04-30T16:25:11.120Z,97993.48
2019-04-30T16:27:19.267Z,97990.25
2019-04-30T16:29:27.306Z,97991.80
2019-04-30T16:31:35.200Z,97986.22
2019-04-30T16:33:43.506Z,97995.04
2019-04-30T16:35:51.368Z,97989.00
2019-04-30T16:37:59.480Z,97992.49
2019-04-30T16:40:08.290Z,97988.37
2019-04-30T16:42:19.031Z,97994.56
2019-04-30T16:44:27.348Z,97989.98
2019-04-30T16:46:35.761Z,97992.11
2019-04-30T16:48:43.666Z,97991.19
2019-04-30T16:50:52.896Z,97992.28
2019-04-30T16:53:00.836Z,98004.46
2019-04-30T16:55:09.337Z,97990.86
2019-04-30T16:57:18.215Z,97989.19
2019-04-30T16:59:30.837Z,97992.23
2019-04-30T17:01:39.249Z,97990.10
2019-04-30T17:03:50.511Z,97992.92
2019-04-30T17:06:16.712Z,97993.60
2019-04-30T17:08:32.235Z,97992.23
2019-04-30T17:10:53.665Z,97995.27
2019-04-30T17:13:09.542Z,98001.63
2019-04-30T17:15:22.001Z,98000.09
2019-04-30T17:17:30.379Z,97999.05
2019-04-30T17:19:39.349Z,97996.73
2019-04-30T17:21:47.591Z,98003.05
2019-04-30T17:23:56.040Z,98004.33
2019-04-30T17:26:04.078Z,98002.46
2019-04-30T17:28:11.969Z,98009.27
2019-04-30T17:30:20.814Z,98007.64
2019-04-30T17:32:28.792Z,98012.66
2019-04-30T17:34:38.840Z,98010.69
2019-04-30T17:36:46.419Z,98006.92
2019-04-30T17:38:55.418Z,98015.02
2019-04-30T17:41:03.281Z,98021.20
2019-04-30T17:43:12.165Z,98020.83
2019-04-30T17:45:20.610Z,98015.66
2019-04-30T17:47:29.459Z,98016.69
2019-04-30T17:49:37.343Z,98016.70
2019-04-30T17:51:45.395Z,98028.61
2019-04-30T17:54:11.292Z,98032.47
2019-04-30T17:56:19.328Z,98031.36
2019-04-30T17:58:27.248Z,98032.64
2019-04-30T18:00:38.827Z,98032.62
2019-04-30T18:02:47.200Z,98034.94
2019-04-30T18:04:55.419Z,98040.31
2019-04-30T18:07:03.881Z,98040.08
2019-04-30T18:09:11.913Z,98035.71
2019-04-30T18:11:20.139Z,98043.59
2019-04-30T18:13:28.308Z,98039.73
2019-04-30T18:15:36.172Z,98042.98
2019-04-30T18:17:45.803Z,98048.73
2019-04-30T18:19:58.476Z,98044.04
2019-04-30T18:22:10.755Z,98044.57
2019-04-30T18:24:29.519Z,98045.39
2019-04-30T18:26:39.145Z,98050.86
2019-04-30T18:28:47.342Z,98049.08
2019-04-30T18:30:55.543Z,98048.00
2019-04-30T18:33:04.119Z,98057.42
2019-04-30T18:35:12.155Z,98058.57
2019-04-30T18:37:20.492Z,98056.31
2019-04-30T18:39:28.894Z,98060.92
2019-04-30T18:41:36.991Z,98057.63
2019-04-30T18:43:45.452Z,98059.64
2019-04-30T18:45:54.389Z,98054.17
2019-04-30T18:48:03.041Z,98060.96
2019-04-30T18:50:11.193Z,98065.43
2019-04-30T18:52:19.170Z,98065.36
2019-04-30T18:54:28.956Z,98066.19
2019-04-30T18:56:36.653Z,98070.14
2019-04-30T18:58:44.549Z,98067.20
2019-04-30T19:00:52.695Z,98071.32
2019-04-30T19:03:00.580Z,98073.78
2019-04-30T19:05:10.266Z,98066.71
2019-04-30T19:07:33.205Z,98072.84
2019-04-30T19:09:45.903Z,98072.53
2019-04-30T19:12:01.045Z,98071.42
2019-04-30T19:14:19.615Z,98074.13
2019-04-30T19:16:45.503Z,98071.88
2019-04-30T19:19:09.428Z,98071.63
2019-04-30T19:21:17.878Z,98072.05
2019-04-30T19:23:25.817Z,98070.94
2019-04-30T19:25:33.712Z,98072.80
2019-04-30T19:27:41.704Z,98066.81
2019-04-30T19:29:51.739Z,98068.19
2019-04-30T19:31:59.469Z,98066.81
2019-04-30T19:34:09.658Z,98059.81
2019-04-30T19:36:20.325Z,98064.81
2019-04-30T19:38:27.734Z,98057.22
2019-04-30T19:40:35.613Z,98065.43
2019-04-30T19:42:44.545Z,98064.50
2019-04-30T19:44:58.986Z,98063.88
2019-04-30T19:47:02.049Z,98060.48
2019-04-30T19:49:10.018Z,98060.13
2019-04-30T19:51:19.775Z,98057.91
2019-04-30T19:53:30.241Z,98064.33
2019-04-30T19:55:39.348Z,98065.61
2019-04-30T19:57:48.436Z,98066.81
2019-04-30T19:59:58.660Z,98064.70
2019-04-30T20:02:06.910Z,98065.05
2019-04-30T20:04:14.820Z,98068.80
2019-04-30T20:06:25.521Z,98058.46
2019-04-30T20:08:33.572Z,98062.27
2019-04-30T20:10:41.372Z,98062.42
2019-04-30T20:12:49.896Z,98062.89
2019-04-30T20:14:57.939Z,98066.31
2019-04-30T20:17:06.050Z,98062.31
2019-04-30T20:19:14.053Z,98063.50
2019-04-30T20:21:28.556Z,98054.83
2019-04-30T20:23:33.386Z,98060.84
2019-04-30T20:25:41.448Z,98058.83
2019-04-30T20:27:49.608Z,98054.34
2019-04-30T20:29:59.233Z,98055.05
2019-04-30T20:32:08.652Z,98050.31
2019-04-30T20:34:19.038Z,98054.95
2019-04-30T20:36:28.832Z,98053.77
2019-04-30T20:38:41.386Z,98054.05
2019-04-30T20:40:59.361Z,98049.20
2019-04-30T20:43:01.121Z,98045.64
2019-04-30T20:45:12.022Z,98044.91
2019-04-30T20:47:21.037Z,98039.79
2019-04-30T20:49:30.118Z,98037.70
2019-04-30T20:51:40.185Z,98040.07
2019-04-30T20:53:49.175Z,98042.53
2019-04-30T20:55:59.203Z,98041.80
2019-04-30T20:58:09.335Z,98041.80
2019-04-30T21:00:17.822Z,98038.09
2019-04-30T21:02:28.575Z,98039.05
2019-04-30T21:04:36.173Z,98038.89
2019-04-30T21:06:44.407Z,98040.47
2019-04-30T21:08:52.304Z,98040.17
2019-04-30T21:11:00.352Z,98032.05
2019-04-30T21:13:10.918Z,98032.49
2019-04-30T21:15:19.675Z,98029.09
2019-04-30T21:17:27.701Z,98029.28
2019-04-30T21:19:35.530Z,98025.64
2019-04-30T21:21:43.520Z,98025.02
2019-04-30T21:23:51.382Z,98020.18
2019-04-30T21:25:59.220Z,98019.98
2019-04-30T21:28:07.156Z,98009.75
2019-04-30T21:30:15.245Z,98009.20
2019-04-30T21:32:24.886Z,98013.39
2019-04-30T21:34:34.454Z,98019.16
2019-04-30T21:36:42.720Z,98018.49
2019-04-30T21:38:51.019Z,98017.14
2019-04-30T21:41:01.243Z,98022.71
2019-04-30T21:43:08.686Z,98014.39
2019-04-30T21:45:16.916Z,98013.56
2019-04-30T21:47:24.745Z,98012.19
2019-04-30T21:49:33.919Z,98002.78
2019-04-30T21:51:41.903Z,98003.91
2019-04-30T21:53:50.429Z,97995.11
2019-04-30T21:55:58.474Z,97999.78
2019-04-30T21:58:06.380Z,97996.37
2019-04-30T22:00:18.534Z,97995.02
2019-04-30T22:02:28.055Z,97997.11
2019-04-30T22:04:36.193Z,97987.90
2019-04-30T22:06:44.192Z,97987.71
2019-04-30T22:08:52.303Z,97983.05
2019-04-30T22:11:00.383Z,97985.34
2019-04-30T22:13:08.912Z,97989.08
2019-04-30T22:15:17.230Z,97980.95
2019-04-30T22:17:25.116Z,97978.75
2019-04-30T22:19:33.006Z,97976.00
2019-04-30T22:21:41.179Z,97971.36
2019-04-30T22:23:49.413Z,97971.68
2019-04-30T22:25:57.283Z,97969.39
2019-04-30T22:28:06.151Z,97975.00
2019-04-30T22:30:14.807Z,97966.99
2019-04-30T22:32:22.894Z,97967.88
2019-04-30T22:34:30.669Z,97970.72
2019-04-30T22:36:40.158Z,97967.44
2019-04-30T22:38:49.249Z,97965.18
2019-04-30T22:40:58.887Z,97969.28
2019-04-30T22:43:09.229Z,97967.29
2019-04-30T22:45:19.595Z,97965.63
2019-04-30T22:47:27.387Z,97964.72
2019-04-30T22:49:36.202Z,97957.95
2019-04-30T22:51:43.993Z,97958.22
2019-04-30T22:53:51.775Z,97964.06
2019-04-30T22:55:59.682Z,97956.94
2019-04-30T22:58:07.562Z,97955.10
2019-04-30T23:00:17.825Z,97952.53
2019-04-30T23:02:33.422Z,97953.75
2019-04-30T23:04:51.821Z,97951.52
2019-04-30T23:06:59.895Z,97953.36
2019-04-30T23:09:11.384Z,97952.26
2019-04-30T23:11:19.261Z,97949.33
2019-04-30T23:13:27.341Z,97950.78
2019-04-30T23:15:35.490Z,97947.16
2019-04-30T23:17:43.414Z,97941.63
2019-04-30T23:19:51.466Z,97938.09
2019-04-30T23:21:59.477Z,97942.55
2019-04-30T23:24:08.227Z,97940.94
2019-04-30T23:26:16.002Z,97937.22
2019-04-30T23:28:24.164Z,97941.23
2019-04-30T23:30:32.079Z,97943.56
2019-04-30T23:32:40.052Z,97934.77
2019-04-30T23:34:48.958Z,97941.72
2019-04-30T23:36:56.827Z,97937.67
2019-04-30T23:39:05.945Z,97935.25
2019-04-30T23:41:14.184Z,97937.27
2019-04-30T23:43:22.560Z,97931.47
2019-04-30T23:45:30.437Z,97926.40
2019-04-30T23:47:38.411Z,97926.44
2019-04-30T23:49:47.146Z,97933.56
2019-04-30T23:51:55.102Z,97938.27
2019-04-30T23:54:02.909Z,97935.94
2019-04-30T23:56:10.859Z,97933.36
2019-04-30T23:58:19.142Z,97932.11
